Time;durP1;ratioP1;P1;durP2;ratioP2;P2;SDS_P1;SDS_P2;PMS_P1;PMS_P2;Temp;Humidity;BMP_temperature;BMP_pressure;BME280_temperature;BME280_humidity;BME280_pressure;Samples;Min_cycle;Max_cycle;Signal;HPM_P1;HPM_P2
2023/10/26 00:02:10;;;;;;;;;;;;;;;15.11;46.02;99773.38;5078187;28;1082;-53
2023/10/26 00:04:36;;;;;;;;;;;;;;;15.01;45.94;99758.72;5083017;28;1086;-53
2023/10/26 00:07:01;;;;;;;;;;;;;;;14.99;46.29;99741.75;5081688;28;893;-51
2023/10/26 00:09:27;;;;;;;;;;;;;;;15.08;45.88;99741.13;5083104;28;1058;-51
2023/10/26 00:11:52;;;;;;;;;;;;;;;15.01;46.09;99728.59;5094445;28;1012;-52
2023/10/26 00:14:18;;;;;;;;;;;;;;;14.98;45.95;99729.16;5083367;28;1038;-52
2023/10/26 00:16:43;;;;;;;;;;;;;;;15.02;46.07;99718.44;5081703;28;1977;-49
2023/10/26 00:19:09;;;;;;;;;;;;;;;14.97;45.81;99716.59;5087305;28;1046;-53
2023/10/26 00:21:34;;;;;;;;;;;;;;;15.66;46.35;99730.06;5076566;28;1903;-51
2023/10/26 00:24:00;;;;;;;;;;;;;;;15.48;47.61;99717.94;5088324;28;1139;-49
2023/10/26 00:26:25;;;;;;;;;;;;;;;15.31;47.46;99721.16;5082545;28;1154;-53
2023/10/26 00:28:51;;;;;;;;;;;;;;;15.12;47.69;99739.44;5094909;28;1093;-53
2023/10/26 00:31:16;;;;;;;;;;;;;;;15.16;46.95;99756.91;5094708;28;1125;-54
2023/10/26 00:33:42;;;;;;;;;;;;;;;16.21;47.19;99764.50;5077815;28;1197;-52
2023/10/26 00:36:08;;;;;;;;;;;;;;;15.49;48.57;99773.56;5064164;28;1498;-52
2023/10/26 00:38:33;;;;;;;;;;;;;;;15.43;47.75;99772.81;5082956;28;1905;-52
2023/10/26 00:40:59;;;;;;;;;;;;;;;15.29;47.53;99761.72;5088597;28;1125;-51
2023/10/26 00:43:25;;;;;;;;;;;;;;;15.26;46.90;99756.00;5088074;28;999;-53
2023/10/26 00:45:51;;;;;;;;;;;;;;;15.21;46.73;99759.63;5076020;28;1237;-50
2023/10/26 00:48:17;;;;;;;;;;;;;;;15.18;46.74;99774.69;5088186;28;1114;-53
2023/10/26 00:50:42;;;;;;;;;;;;;;;15.04;46.69;99766.34;5060481;28;1903;-52
2023/10/26 00:53:08;;;;;;;;;;;;;;;15.19;46.11;99770.03;5075792;28;1197;-52
2023/10/26 00:55:34;;;;;;;;;;;;;;;15.97;47.64;99757.13;5082887;28;1165;-53
2023/10/26 00:57:59;;;;;;;;;;;;;;;15.49;48.13;99749.72;5087001;28;1909;-52
2023/10/26 01:00:27;;;;;;;;;;;;;;;15.34;48.07;99769.88;5078984;28;1046;-50
2023/10/26 01:02:53;;;;;;;;;;;;;;;15.40;47.21;99762.41;5073775;28;1186;-52
2023/10/26 01:05:18;;;;;;;;;;;;;;;15.35;46.88;99757.00;5094962;28;1046;-53
2023/10/26 01:07:44;;;;;;;;;;;;;;;15.71;47.39;99762.91;5086797;28;1426;-53
2023/10/26 01:10:10;;;;;;;;;;;;;;;15.79;48.26;99779.81;5073643;28;1113;-53
2023/10/26 01:12:35;;;;;;;;;;;;;;;15.49;48.33;99790.03;5078546;28;1053;-53
2023/10/26 01:15:03;;;;;;;;;;;;;;;15.37;47.78;99795.88;5096994;28;1039;-52
2023/10/26 01:17:29;;;;;;;;;;;;;;;15.31;47.61;99803.31;5068608;28;1910;-53
2023/10/26 01:19:54;;;;;;;;;;;;;;;15.37;46.68;99813.13;5060625;28;2336;-53
2023/10/26 01:22:27;;;;;;;;;;;;;;;15.27;46.79;99812.41;5090072;28;1050;-53
2023/10/26 01:24:53;;;;;;;;;;;;;;;15.27;46.31;99815.97;5079001;28;1042;-54
2023/10/26 01:27:18;;;;;;;;;;;;;;;15.88;47.70;99819.22;5080360;28;1277;-52
2023/10/26 01:29:44;;;;;;;;;;;;;;;15.45;47.89;99821.84;5082522;28;1478;-54
2023/10/26 01:32:10;;;;;;;;;;;;;;;15.42;47.58;99825.13;5098278;28;1129;-52
2023/10/26 01:34:35;;;;;;;;;;;;;;;15.40;47.01;99829.00;5092600;28;1089;-54
2023/10/26 01:37:03;;;;;;;;;;;;;;;15.31;46.85;99832.66;5078011;28;1914;-53
2023/10/26 01:39:28;;;;;;;;;;;;;;;16.21;47.13;99830.31;5091599;28;1062;-51
2023/10/26 01:41:54;;;;;;;;;;;;;;;15.58;47.98;99832.09;5085984;28;1154;-53
2023/10/26 01:44:19;;;;;;;;;;;;;;;15.49;47.74;99820.97;5097970;28;1197;-53
2023/10/26 01:46:45;;;;;;;;;;;;;;;15.42;47.25;99804.06;5098105;28;1068;-53
2023/10/26 01:49:10;;;;;;;;;;;;;;;15.46;46.59;99805.09;5078561;28;1027;-53
2023/10/26 01:51:35;;;;;;;;;;;;;;;15.27;46.64;99801.47;5072748;28;2643;-53
2023/10/26 01:54:01;;;;;;;;;;;;;;;15.39;46.35;99810.91;5082690;28;1112;-52
2023/10/26 01:56:27;;;;;;;;;;;;;;;15.24;46.40;99819.28;5085848;28;1042;-52
2023/10/26 01:58:52;;;;;;;;;;;;;;;15.24;46.13;99813.81;5059750;28;1905;-55
2023/10/26 02:01:18;;;;;;;;;;;;;;;15.21;46.03;99819.88;5071922;28;1075;-54
2023/10/26 02:03:43;;;;;;;;;;;;;;;15.24;46.07;99830.25;5074042;28;1326;-52
2023/10/26 02:06:09;;;;;;;;;;;;;;;15.28;46.04;99831.31;5065919;28;1064;-53
2023/10/26 02:08:35;;;;;;;;;;;;;;;15.22;45.88;99813.25;5064317;28;1138;-53
2023/10/26 02:11:00;;;;;;;;;;;;;;;15.15;46.28;99812.78;5084943;28;1010;-53
2023/10/26 02:13:26;;;;;;;;;;;;;;;15.19;45.89;99831.13;5091109;28;1107;-54
2023/10/26 02:15:51;;;;;;;;;;;;;;;15.84;46.83;99826.41;5059599;28;1283;-54
2023/10/26 02:18:17;;;;;;;;;;;;;;;15.57;47.58;99820.34;5095803;28;2001;-54
2023/10/26 02:20:42;;;;;;;;;;;;;;;15.29;47.69;99821.97;5079278;28;1792;-54
2023/10/26 02:23:08;;;;;;;;;;;;;;;15.19;47.25;99811.94;5096984;28;1035;-54
2023/10/26 02:25:33;;;;;;;;;;;;;;;15.27;46.49;99826.13;5067515;28;1223;-55
2023/10/26 02:27:59;;;;;;;;;;;;;;;15.25;46.22;99831.03;5059607;28;1293;-54
2023/10/26 02:30:24;;;;;;;;;;;;;;;15.21;46.32;99825.34;5064568;28;1218;-53
2023/10/26 02:32:50;;;;;;;;;;;;;;;15.19;46.01;99833.84;5097143;28;1070;-54
2023/10/26 02:35:16;;;;;;;;;;;;;;;15.19;46.26;99838.50;5097013;28;1002;-53
2023/10/26 02:37:42;;;;;;;;;;;;;;;15.12;46.20;99818.84;5083452;28;1902;-55
2023/10/26 02:40:10;;;;;;;;;;;;;;;16.06;47.11;99828.56;5097142;28;1038;-54
2023/10/26 02:42:35;;;;;;;;;;;;;;;15.39;47.94;99821.88;5078908;28;1140;-54
2023/10/26 02:45:03;;;;;;;;;;;;;;;15.40;47.33;99834.47;5067243;28;1190;-54
2023/10/26 02:47:29;;;;;;;;;;;;;;;15.36;46.99;99827.94;5078671;28;1101;-54
2023/10/26 02:49:54;;;;;;;;;;;;;;;15.29;46.74;99834.84;5084277;28;2382;-53
2023/10/26 02:52:20;;;;;;;;;;;;;;;15.26;46.55;99830.75;5071983;28;1107;-55
2023/10/26 02:54:46;;;;;;;;;;;;;;;15.28;46.01;99834.03;5081441;28;1050;-54
2023/10/26 02:57:14;;;;;;;;;;;;;;;15.15;46.18;99831.94;5076977;28;1914;-54
2023/10/26 02:59:40;;;;;;;;;;;;;;;15.13;46.19;99821.28;5066797;28;1358;-54
2023/10/26 03:02:05;;;;;;;;;;;;;;;15.80;47.36;99812.44;5081713;28;995;-54
2023/10/26 03:04:31;;;;;;;;;;;;;;;15.41;47.48;99824.31;5096547;28;1004;-51
2023/10/26 03:06:56;;;;;;;;;;;;;;;15.31;47.09;99825.25;5093353;28;1066;-54
2023/10/26 03:09:22;;;;;;;;;;;;;;;15.32;46.78;99820.56;5084909;28;1014;-55
2023/10/26 03:11:48;;;;;;;;;;;;;;;15.22;46.66;99816.84;5081691;28;1039;-52
2023/10/26 03:14:14;;;;;;;;;;;;;;;15.16;46.26;99814.44;5085123;28;1201;-54
2023/10/26 03:16:39;;;;;;;;;;;;;;;15.12;46.12;99814.16;5093577;28;1154;-52
2023/10/26 03:19:05;;;;;;;;;;;;;;;15.18;45.85;99820.41;5079604;28;1981;-52
2023/10/26 03:21:31;;;;;;;;;;;;;;;15.97;46.71;99808.41;5096215;28;2836;-49
2023/10/26 03:23:56;;;;;;;;;;;;;;;15.76;47.93;99814.09;5064533;28;1225;-50
2023/10/26 03:26:23;;;;;;;;;;;;;;;15.51;47.91;99817.94;5083082;28;1525;-52
2023/10/26 03:28:48;;;;;;;;;;;;;;;15.34;47.38;99812.91;5093891;28;1023;-46
2023/10/26 03:31:14;;;;;;;;;;;;;;;15.36;46.84;99822.47;5076591;28;876;-48
2023/10/26 03:33:39;;;;;;;;;;;;;;;15.28;46.67;99824.97;5077146;28;1019;-48
2023/10/26 03:36:11;;;;;;;;;;;;;;;15.24;46.56;99813.81;5070181;28;1034;-47
2023/10/26 03:38:37;;;;;;;;;;;;;;;15.15;46.22;99823.72;5089225;28;1972;-50
2023/10/26 03:41:04;;;;;;;;;;;;;;;15.16;46.39;99833.59;5084737;28;1055;-51
2023/10/26 03:43:29;;;;;;;;;;;;;;;15.19;46.00;99817.41;5088355;28;1049;-47
2023/10/26 03:45:55;;;;;;;;;;;;;;;15.12;46.01;99821.56;5081425;28;1174;-49
2023/10/26 03:48:20;;;;;;;;;;;;;;;16.13;47.08;99822.75;5091653;28;1129;-51
2023/10/26 03:50:46;;;;;;;;;;;;;;;15.53;47.96;99827.50;5093082;28;2386;-50
2023/10/26 03:53:11;;;;;;;;;;;;;;;15.43;47.22;99821.28;5061765;28;1298;-47
2023/10/26 03:55:37;;;;;;;;;;;;;;;15.42;46.85;99825.97;5089514;28;1301;-51
2023/10/26 03:58:02;;;;;;;;;;;;;;;15.35;47.31;99823.56;5092776;28;1902;-55
2023/10/26 04:00:28;;;;;;;;;;;;;;;15.40;47.45;99822.69;5082825;28;1146;-44
2023/10/26 04:02:53;;;;;;;;;;;;;;;15.28;47.30;99823.09;5070100;28;1137;-57
2023/10/26 04:05:19;;;;;;;;;;;;;;;15.40;47.40;99831.75;5078079;28;1192;-57
2023/10/26 04:07:44;;;;;;;;;;;;;;;15.80;48.31;99830.81;5076609;28;931;-57
2023/10/26 04:10:10;;;;;;;;;;;;;;;15.40;48.42;99834.47;5088349;28;1110;-56
2023/10/26 04:12:35;;;;;;;;;;;;;;;15.33;47.79;99823.03;5075011;28;987;-56
2023/10/26 04:15:02;;;;;;;;;;;;;;;15.27;47.40;99818.69;5089434;28;1417;-56
2023/10/26 04:17:28;;;;;;;;;;;;;;;16.17;48.08;99812.81;5081632;28;1909;-56
2023/10/26 04:19:54;;;;;;;;;;;;;;;15.59;48.75;99820.03;5076236;28;1820;-51
2023/10/26 04:22:19;;;;;;;;;;;;;;;15.44;48.31;99829.22;5075464;28;1040;-56
2023/10/26 04:24:45;;;;;;;;;;;;;;;15.39;47.70;99816.41;5089203;28;1133;-57
2023/10/26 04:27:10;;;;;;;;;;;;;;;15.43;47.09;99818.56;5087143;28;1089;-56
2023/10/26 04:29:36;;;;;;;;;;;;;;;15.17;47.31;99816.06;5085419;28;1104;-56
2023/10/26 04:32:01;;;;;;;;;;;;;;;15.39;46.24;99813.66;5096540;28;1063;-57
2023/10/26 04:34:26;;;;;;;;;;;;;;;16.41;45.55;99818.25;5096497;28;1058;-56
2023/10/26 04:36:52;;;;;;;;;;;;;;;16.32;46.09;99809.88;5095926;28;1901;-54
2023/10/26 04:39:18;;;;;;;;;;;;;;;16.10;47.19;99820.59;5091972;28;1121;-56
2023/10/26 04:41:43;;;;;;;;;;;;;;;15.97;47.81;99819.38;5093840;28;876;-54
2023/10/26 04:44:09;;;;;;;;;;;;;;;15.90;48.29;99823.28;5089488;28;934;-57
2023/10/26 04:46:34;;;;;;;;;;;;;;;15.79;48.82;99823.66;5084892;28;1003;-49
2023/10/26 04:49:00;;;;;;;;;;;;;;;15.76;49.05;99821.50;5090558;28;1130;-53
2023/10/26 04:51:25;;;;;;;;;;;;;;;16.99;46.91;99825.38;5079147;28;2227;-50
2023/10/26 04:53:51;;;;;;;;;;;;;;;16.71;47.51;99827.97;5082061;28;1167;-49
2023/10/26 04:56:16;;;;;;;;;;;;;;;16.26;48.80;99827.50;5089860;28;844;-46
2023/10/26 04:58:43;;;;;;;;;;;;;;;16.15;49.39;99832.31;5088023;28;1918;-50
2023/10/26 05:01:08;;;;;;;;;;;;;;;16.03;49.67;99840.97;5079097;28;1019;-45
2023/10/26 05:03:34;;;;;;;;;;;;;;;15.96;49.92;99845.16;5098980;28;1022;-52
2023/10/26 05:05:59;;;;;;;;;;;;;;;15.86;50.29;99851.56;5098813;28;1075;-55
2023/10/26 05:08:25;;;;;;;;;;;;;;;17.10;48.02;99859.81;5090165;28;912;-50
2023/10/26 05:10:50;;;;;;;;;;;;;;;16.89;48.30;99861.25;5078968;28;1150;-47
2023/10/26 05:13:16;;;;;;;;;;;;;;;16.43;49.67;99871.72;5099027;28;1042;-49
2023/10/26 05:15:45;;;;;;;;;;;;;;;16.24;50.17;99876.34;5098860;28;1030;-49
2023/10/26 05:18:10;;;;;;;;;;;;;;;16.16;50.60;99883.31;5078300;28;1894;-49
2023/10/26 05:20:37;;;;;;;;;;;;;;;16.02;51.00;99888.69;5090912;28;1938;-49
2023/10/26 05:23:02;;;;;;;;;;;;;;;16.96;49.18;99883.66;5094171;28;1173;-55
2023/10/26 05:25:28;;;;;;;;;;;;;;;16.99;48.95;99885.00;5084173;28;869;-52
2023/10/26 05:27:54;;;;;;;;;;;;;;;16.52;50.29;99887.53;5095024;28;1042;-54
2023/10/26 05:30:19;;;;;;;;;;;;;;;16.33;50.81;99866.38;5091334;28;1066;-55
2023/10/26 05:32:45;;;;;;;;;;;;;;;16.17;51.09;99878.63;5086332;28;921;-52
2023/10/26 05:35:10;;;;;;;;;;;;;;;16.14;51.44;99879.22;5094753;28;1476;-58
2023/10/26 05:37:36;;;;;;;;;;;;;;;16.05;51.91;99885.34;5086102;28;1988;-51
2023/10/26 05:40:03;;;;;;;;;;;;;;;17.07;49.67;99882.38;5096960;28;1229;-58
2023/10/26 05:42:30;;;;;;;;;;;;;;;17.03;49.88;99873.09;5097844;28;991;-55
2023/10/26 05:44:56;;;;;;;;;;;;;;;16.56;50.92;99877.59;5081687;28;1067;-56
2023/10/26 05:47:21;;;;;;;;;;;;;;;16.35;51.42;99874.31;5098081;28;1096;-55
2023/10/26 05:49:47;;;;;;;;;;;;;;;16.27;51.95;99877.69;5093076;28;1708;-56
2023/10/26 05:52:12;;;;;;;;;;;;;;;16.18;51.76;99888.50;5077959;28;1081;-54
2023/10/26 05:54:38;;;;;;;;;;;;;;;16.08;52.28;99890.25;5082735;28;1089;-56
2023/10/26 05:57:04;;;;;;;;;;;;;;;16.05;52.20;99896.31;5087404;28;1929;-57
2023/10/26 05:59:29;;;;;;;;;;;;;;;17.07;50.21;99873.34;5085006;28;1324;-58
2023/10/26 06:01:54;;;;;;;;;;;;;;;17.00;50.36;99881.13;5084769;28;1261;-59
2023/10/26 06:04:20;;;;;;;;;;;;;;;16.60;51.52;99882.19;5089270;28;1042;-56
2023/10/26 06:06:45;;;;;;;;;;;;;;;16.41;51.96;99873.97;5090930;28;1161;-57
2023/10/26 06:09:11;;;;;;;;;;;;;;;16.28;52.42;99882.09;5092019;28;877;-55
2023/10/26 06:11:37;;;;;;;;;;;;;;;16.21;52.58;99887.91;5095024;28;1089;-56
2023/10/26 06:14:03;;;;;;;;;;;;;;;16.11;52.90;99890.78;5078890;28;1476;-56
2023/10/26 06:16:28;;;;;;;;;;;;;;;16.01;52.97;99887.03;5079591;28;955;-56
2023/10/26 06:18:54;;;;;;;;;;;;;;;17.01;51.11;99880.00;5097329;28;1902;-47
2023/10/26 06:21:19;;;;;;;;;;;;;;;17.20;50.56;99882.75;5094125;28;2128;-48
2023/10/26 06:23:45;;;;;;;;;;;;;;;16.68;51.92;99883.47;5086679;28;904;-53
2023/10/26 06:26:11;;;;;;;;;;;;;;;16.48;52.41;99878.25;5097620;28;1066;-52
2023/10/26 06:28:36;;;;;;;;;;;;;;;16.35;52.84;99880.59;5089269;28;1178;-51
2023/10/26 06:31:09;;;;;;;;;;;;;;;16.21;53.07;99888.72;5079167;28;1130;-55
2023/10/26 06:33:34;;;;;;;;;;;;;;;16.16;52.99;99887.97;5087031;28;851;-50
2023/10/26 06:36:00;;;;;;;;;;;;;;;16.37;52.86;99889.38;5097287;28;1025;-53
2023/10/26 06:38:25;;;;;;;;;;;;;;;17.38;50.36;99894.81;5097048;28;1898;-48
2023/10/26 06:40:51;;;;;;;;;;;;;;;16.72;52.09;99889.19;5096406;28;1044;-50
2023/10/26 06:43:16;;;;;;;;;;;;;;;16.46;52.76;99885.97;5093061;28;1182;-51
2023/10/26 06:45:42;;;;;;;;;;;;;;;16.38;52.90;99884.69;5093968;28;1118;-49
2023/10/26 06:48:08;;;;;;;;;;;;;;;16.22;53.40;99893.09;5084493;28;1324;-51
2023/10/26 06:50:33;;;;;;;;;;;;;;;16.19;53.24;99882.72;5093390;28;1887;-51
2023/10/26 06:52:59;;;;;;;;;;;;;;;16.12;53.33;99882.28;5087998;28;1210;-51
2023/10/26 06:55:24;;;;;;;;;;;;;;;16.98;51.91;99875.13;5081343;28;1143;-56
2023/10/26 06:57:50;;;;;;;;;;;;;;;17.12;51.39;99880.66;5090432;28;1894;-55
2023/10/26 07:00:17;;;;;;;;;;;;;;;16.60;52.67;99887.69;5093112;28;1130;-53
2023/10/26 07:02:42;;;;;;;;;;;;;;;16.44;53.34;99889.03;5087879;28;1028;-56
2023/10/26 07:05:08;;;;;;;;;;;;;;;16.35;53.22;99891.56;5079836;28;1033;-56
2023/10/26 07:07:35;;;;;;;;;;;;;;;16.28;53.68;99888.38;5077053;28;1159;-54
2023/10/26 07:10:01;;;;;;;;;;;;;;;16.17;53.48;99895.09;5095068;28;1256;-48
2023/10/26 07:12:26;;;;;;;;;;;;;;;16.07;53.92;99899.59;5088342;28;1017;-52
2023/10/26 07:14:54;;;;;;;;;;;;;;;16.06;53.91;99906.19;5089172;28;1134;-54
2023/10/26 07:17:23;;;;;;;;;;;;;;;16.63;52.94;99908.25;5085323;28;1968;-56
2023/10/26 07:19:52;;;;;;;;;;;;;;;17.24;51.75;99911.25;5084210;28;2114;-57
2023/10/26 07:22:17;;;;;;;;;;;;;;;16.63;53.31;99907.44;5081216;28;1065;-53
2023/10/26 07:24:43;;;;;;;;;;;;;;;16.43;53.71;99898.34;5082864;28;1113;-54
2023/10/26 07:27:08;;;;;;;;;;;;;;;16.33;53.79;99902.03;5093718;28;1106;-49
2023/10/26 07:29:34;;;;;;;;;;;;;;;16.24;54.02;99890.06;5094673;28;1090;-52
2023/10/26 07:31:59;;;;;;;;;;;;;;;16.19;54.18;99893.69;5094428;28;1054;-54
2023/10/26 07:34:25;;;;;;;;;;;;;;;17.48;51.41;99880.88;5095000;28;1164;-54
2023/10/26 07:36:50;;;;;;;;;;;;;;;16.85;52.96;99882.16;5076891;28;1087;-56
2023/10/26 07:39:16;;;;;;;;;;;;;;;16.55;53.73;99884.19;5089727;28;1062;-56
2023/10/26 07:41:42;;;;;;;;;;;;;;;16.45;53.90;99878.84;5084711;28;1015;-57
2023/10/26 07:44:07;;;;;;;;;;;;;;;16.40;53.97;99877.81;5095833;28;1058;-57
2023/10/26 07:46:33;;;;;;;;;;;;;;;16.31;54.32;99885.03;5095178;28;1427;-58
2023/10/26 07:48:59;;;;;;;;;;;;;;;16.22;54.29;99887.63;5085233;28;1169;-55
2023/10/26 07:51:25;;;;;;;;;;;;;;;16.15;54.41;99886.34;5091524;28;2140;-55
2023/10/26 07:53:50;;;;;;;;;;;;;;;16.08;54.42;99895.72;5084973;28;1089;-57
2023/10/26 07:56:16;;;;;;;;;;;;;;;16.66;53.77;99890.38;5083033;28;1003;-56
2023/10/26 07:58:41;;;;;;;;;;;;;;;17.42;51.86;99887.59;5080804;28;1980;-55
2023/10/26 08:01:08;;;;;;;;;;;;;;;16.73;53.63;99885.31;5095883;28;1642;-56
2023/10/26 08:03:33;;;;;;;;;;;;;;;16.54;54.08;99888.06;5088476;28;1078;-51
2023/10/26 08:06:00;;;;;;;;;;;;;;;16.40;54.09;99877.81;5091857;28;1096;-52
2023/10/26 08:08:26;;;;;;;;;;;;;;;16.31;54.32;99874.06;5091843;28;1194;-50
2023/10/26 08:10:51;;;;;;;;;;;;;;;16.24;54.42;99868.97;5081069;28;1006;-51
2023/10/26 08:13:17;;;;;;;;;;;;;;;16.21;54.46;99876.94;5090863;28;1134;-48
2023/10/26 08:15:43;;;;;;;;;;;;;;;16.16;54.26;99877.00;5082815;28;1122;-47
2023/10/26 08:18:09;;;;;;;;;;;;;;;17.02;53.16;99879.69;5079715;28;1984;-49
2023/10/26 08:20:34;;;;;;;;;;;;;;;17.18;52.71;99868.47;5090055;28;1839;-46
2023/10/26 08:23:01;;;;;;;;;;;;;;;16.64;54.43;99870.66;5090621;28;1089;-49
2023/10/26 08:25:27;;;;;;;;;;;;;;;16.50;54.49;99882.34;5082519;28;1070;-48
2023/10/26 08:27:53;;;;;;;;;;;;;;;16.40;54.52;99877.81;5090654;28;1181;-51
2023/10/26 08:30:18;;;;;;;;;;;;;;;16.32;54.63;99874.91;5095783;28;1145;-48
2023/10/26 08:32:44;;;;;;;;;;;;;;;16.24;54.67;99862.63;5081150;28;1142;-49
2023/10/26 08:35:09;;;;;;;;;;;;;;;16.19;54.85;99868.22;5099091;28;1330;-48
2023/10/26 08:37:34;;;;;;;;;;;;;;;16.18;54.51;99863.81;5102440;28;1986;-51
2023/10/26 08:40:00;;;;;;;;;;;;;;;16.12;54.76;99868.56;5086234;28;1193;-49
2023/10/26 08:42:26;;;;;;;;;;;;;;;16.10;54.69;99850.75;5099612;28;1126;-52
2023/10/26 08:44:52;;;;;;;;;;;;;;;16.65;54.07;99867.59;5092260;28;1218;-49
2023/10/26 08:47:18;;;;;;;;;;;;;;;17.32;52.59;99866.59;5061666;28;1126;-53
2023/10/26 08:49:44;;;;;;;;;;;;;;;16.73;54.08;99875.19;5092381;28;1812;-53
2023/10/26 08:52:09;;;;;;;;;;;;;;;16.54;54.75;99877.91;5092834;28;1095;-47
2023/10/26 08:54:35;;;;;;;;;;;;;;;16.41;54.72;99875.88;5081198;28;1071;-48
2023/10/26 08:57:07;;;;;;;;;;;;;;;16.30;54.84;99872.47;5085108;28;1905;-47
2023/10/26 08:59:33;;;;;;;;;;;;;;;16.30;54.63;99875.19;5092142;28;1091;-48
2023/10/26 09:01:58;;;;;;;;;;;;;;;16.20;54.96;99872.56;5081425;28;1083;-50
2023/10/26 09:04:24;;;;;;;;;;;;;;;16.15;54.74;99865.22;5091519;28;936;-44
2023/10/26 09:06:51;;;;;;;;;;;;;;;16.15;54.71;99864.41;5085337;28;1112;-51
2023/10/26 09:09:16;;;;;;;;;;;;;;;16.10;54.74;99865.28;5087468;28;964;-46
2023/10/26 09:11:43;;;;;;;;;;;;;;;17.43;53.05;99853.47;5083671;28;1143;-51
2023/10/26 09:14:18;;;;;;;;;;;;;;;16.94;53.99;99852.91;5077901;28;1035;-50
2023/10/26 09:16:45;;;;;;;;;;;;;;;16.59;54.89;99846.81;5083688;28;1103;-51
2023/10/26 09:19:14;;;;;;;;;;;;;;;16.45;54.85;99840.44;5078933;28;1909;-49
2023/10/26 09:21:51;;;;;;;;;;;;;;;16.38;54.91;99838.88;5079008;28;1923;-49
2023/10/26 09:24:17;;;;;;;;;;;;;;;16.31;55.03;99840.34;5083573;28;1127;-46
2023/10/26 09:26:43;;;;;;;;;;;;;;;16.26;54.97;99833.00;5090706;28;1291;-52
2023/10/26 09:29:09;;;;;;;;;;;;;;;16.27;54.80;99839.28;5078587;28;1004;-48
2023/10/26 09:31:35;;;;;;;;;;;;;;;16.22;54.66;99832.75;5092095;28;1041;-51
2023/10/26 09:34:09;;;;;;;;;;;;;;;16.18;54.88;99841.88;5090018;28;1307;-50
2023/10/26 09:36:34;;;;;;;;;;;;;;;16.67;54.63;99829.69;5090954;28;1712;-45
2023/10/26 09:39:00;;;;;;;;;;;;;;;17.32;53.29;99825.41;5084647;28;1976;-49
2023/10/26 09:41:25;;;;;;;;;;;;;;;16.73;54.71;99812.03;5093894;28;1534;-47
2023/10/26 09:43:51;;;;;;;;;;;;;;;16.56;55.21;99818.06;5079769;28;1245;-52
2023/10/26 09:46:20;;;;;;;;;;;;;;;16.49;55.17;99808.53;5095696;28;1420;-48
2023/10/26 09:48:46;;;;;;;;;;;;;;;16.41;55.04;99829.22;5098915;28;1346;-50
2023/10/26 09:51:11;;;;;;;;;;;;;;;16.33;55.36;99807.97;5087261;28;2220;-51
2023/10/26 09:53:38;;;;;;;;;;;;;;;16.29;55.28;99793.19;5080676;28;1219;-50
2023/10/26 09:56:04;;;;;;;;;;;;;;;16.28;54.92;99792.38;5089591;28;1129;-50
2023/10/26 09:58:31;;;;;;;;;;;;;;;16.20;55.20;99790.28;5088490;28;1914;-49
2023/10/26 10:00:57;;;;;;;;;;;;;;;16.17;55.19;99799.09;5098661;28;1368;-49
2023/10/26 10:03:22;;;;;;;;;;;;;;;16.13;55.11;99790.66;5101653;28;1374;-51
2023/10/26 10:05:49;;;;;;;;;;;;;;;16.12;54.82;99794.50;5089277;28;1318;-48
2023/10/26 10:08:16;;;;;;;;;;;;;;;16.21;55.24;99805.63;5098021;28;1232;-45
2023/10/26 10:11:08;;;;;;;;;;;;;;;17.54;53.12;99801.91;5069665;28;1171;-46
2023/10/26 10:13:37;;;;;;;;;;;;;;;16.80;54.65;99797.09;5096811;28;1183;-46
2023/10/26 10:16:02;;;;;;;;;;;;;;;16.62;55.02;99793.25;5094170;28;1186;-47
2023/10/26 10:18:28;;;;;;;;;;;;;;;16.52;55.14;99792.31;5079203;28;1975;-46
2023/10/26 10:20:54;;;;;;;;;;;;;;;16.41;55.13;99788.91;5088297;28;1994;-47
2023/10/26 10:23:29;;;;;;;;;;;;;;;16.30;55.10;99790.16;5081861;28;877;-45
2023/10/26 10:25:56;;;;;;;;;;;;;;;16.25;55.13;99788.28;5092814;28;1103;-46
2023/10/26 10:28:21;;;;;;;;;;;;;;;16.29;54.92;99782.22;5090941;28;1132;-50
2023/10/26 10:30:57;;;;;;;;;;;;;;;17.50;53.18;99770.66;5087677;28;1067;-47
2023/10/26 10:33:24;;;;;;;;;;;;;;;16.89;54.62;99765.94;5085573;28;1081;-43
2023/10/26 10:36:02;;;;;;;;;;;;;;;16.69;55.20;99769.81;5090525;28;860;-48
2023/10/26 10:38:28;;;;;;;;;;;;;;;16.56;55.14;99765.91;5097210;28;2251;-48
2023/10/26 10:40:53;;;;;;;;;;;;;;;16.50;55.43;99761.59;5087372;28;1186;-46
2023/10/26 10:43:32;;;;;;;;;;;;;;;16.44;55.09;99760.06;5093560;28;1134;-44
2023/10/26 10:46:08;;;;;;;;;;;;;;;16.37;55.05;99745.91;5093666;28;1126;-51
2023/10/26 10:48:34;;;;;;;;;;;;;;;16.40;54.96;99734.31;5081069;28;1065;-49
2023/10/26 10:50:59;;;;;;;;;;;;;;;16.33;55.15;99744.84;5089893;28;1875;-52
2023/10/26 10:53:27;;;;;;;;;;;;;;;16.27;55.02;99729.56;5076974;28;1457;-51
2023/10/26 10:55:53;;;;;;;;;;;;;;;16.22;54.91;99733.22;5082964;28;1145;-52
2023/10/26 10:58:18;;;;;;;;;;;;;;;16.22;54.95;99733.22;5081069;28;1973;-52
2023/10/26 11:00:45;;;;;;;;;;;;;;;16.17;55.05;99730.53;5076373;28;1166;-48
2023/10/26 11:03:22;;;;;;;;;;;;;;;16.29;55.12;99733.66;5089975;28;1027;-48
2023/10/26 11:05:48;;;;;;;;;;;;;;;17.47;53.40;99727.28;5078814;28;1197;-51
2023/10/26 11:08:14;;;;;;;;;;;;;;;16.84;54.89;99733.03;5079185;28;1115;-52
2023/10/26 11:10:39;;;;;;;;;;;;;;;16.64;55.30;99734.22;5084227;28;1504;-50
2023/10/26 11:13:05;;;;;;;;;;;;;;;16.57;55.07;99720.06;5091396;28;1094;-51
2023/10/26 11:15:31;;;;;;;;;;;;;;;16.49;55.18;99720.72;5089960;28;1407;-49
2023/10/26 11:17:57;;;;;;;;;;;;;;;16.42;55.38;99710.13;5086800;28;1909;-50
2023/10/26 11:20:36;;;;;;;;;;;;;;;16.42;55.09;99705.47;5084337;28;2081;-49
2023/10/26 11:23:02;;;;;;;;;;;;;;;16.32;55.24;99705.63;5085052;28;1073;-46
2023/10/26 11:25:28;;;;;;;;;;;;;;;16.29;55.28;99699.94;5080797;28;1137;-49
2023/10/26 11:27:53;;;;;;;;;;;;;;;16.24;55.35;99698.06;5085489;28;1078;-51
2023/10/26 11:30:19;;;;;;;;;;;;;;;16.26;55.02;99698.59;5093903;28;1220;-51
2023/10/26 11:32:44;;;;;;;;;;;;;;;16.20;55.33;99703.34;5085116;28;1051;-50
2023/10/26 11:35:13;;;;;;;;;;;;;;;16.12;55.32;99695.78;5076090;28;1119;-44
2023/10/26 11:37:49;;;;;;;;;;;;;;;16.16;55.01;99687.75;5075931;28;1909;-53
2023/10/26 11:40:15;;;;;;;;;;;;;;;16.14;55.25;99696.28;5083773;28;1023;-53
2023/10/26 11:42:56;;;;;;;;;;;;;;;17.44;53.78;99692.97;5083889;28;1395;-53
2023/10/26 11:45:22;;;;;;;;;;;;;;;17.01;54.73;99693.25;5078158;28;1121;-53
2023/10/26 11:47:48;;;;;;;;;;;;;;;16.73;55.19;99687.66;5086281;28;1276;-51
2023/10/26 11:50:20;;;;;;;;;;;;;;;16.57;55.44;99700.84;5088819;28;1996;-54
2023/10/26 11:52:46;;;;;;;;;;;;;;;16.52;55.54;99711.91;5077700;28;1472;-54
2023/10/26 11:55:14;;;;;;;;;;;;;;;16.45;55.30;99703.25;5101241;28;1387;-50
2023/10/26 11:57:40;;;;;;;;;;;;;;;16.37;55.64;99702.81;5093687;28;1969;-52
2023/10/26 12:00:06;;;;;;;;;;;;;;;16.29;55.45;99706.22;5082650;28;1051;-52
2023/10/26 12:02:38;;;;;;;;;;;;;;;16.25;55.42;99699.69;5095584;28;1149;-53
2023/10/26 12:05:04;;;;;;;;;;;;;;;16.24;55.09;99703.53;5096077;28;1367;-54
2023/10/26 12:07:30;;;;;;;;;;;;;;;17.22;54.43;99708.25;5086902;28;1526;-52
2023/10/26 12:09:55;;;;;;;;;;;;;;;17.09;54.76;99698.84;5075323;28;1084;-52
2023/10/26 12:12:21;;;;;;;;;;;;;;;16.75;55.68;99697.25;5083951;28;917;-54
2023/10/26 12:14:47;;;;;;;;;;;;;;;16.58;55.77;99691.50;5093996;28;1046;-54
2023/10/26 12:17:12;;;;;;;;;;;;;;;16.52;55.44;99695.44;5094368;28;1914;-55
2023/10/26 12:19:38;;;;;;;;;;;;;;;16.44;55.68;99691.47;5095445;28;1828;-55
2023/10/26 12:22:03;;;;;;;;;;;;;;;16.42;55.92;99689.00;5084977;28;1112;-54
2023/10/26 12:24:29;;;;;;;;;;;;;;;16.36;55.69;99683.91;5095240;28;918;-55
2023/10/26 12:26:57;;;;;;;;;;;;;;;16.34;55.22;99691.59;5093268;28;1027;-55
2023/10/26 12:29:23;;;;;;;;;;;;;;;16.30;55.33;99683.16;5095610;28;1042;-56
2023/10/26 12:31:49;;;;;;;;;;;;;;;16.24;55.16;99685.19;5093139;28;1224;-55
2023/10/26 12:34:14;;;;;;;;;;;;;;;16.21;55.30;99679.47;5075426;28;1007;-54
2023/10/26 12:36:39;;;;;;;;;;;;;;;16.14;55.52;99673.53;5092630;28;891;-54
2023/10/26 12:39:05;;;;;;;;;;;;;;;16.50;55.64;99673.78;5084040;28;1905;-56
2023/10/26 12:41:30;;;;;;;;;;;;;;;17.47;54.30;99677.81;5080945;28;1010;-55
2023/10/26 12:43:56;;;;;;;;;;;;;;;16.81;55.98;99681.50;5095216;28;1088;-56
2023/10/26 12:46:22;;;;;;;;;;;;;;;16.62;56.08;99680.72;5084089;28;1437;-55
2023/10/26 12:48:48;;;;;;;;;;;;;;;16.54;55.92;99682.25;5089402;28;922;-55
2023/10/26 12:51:13;;;;;;;;;;;;;;;16.46;55.71;99682.94;5076265;28;2248;-52
2023/10/26 12:53:39;;;;;;;;;;;;;;;16.46;55.82;99691.16;5095769;28;1101;-52